Time;durP1;ratioP1;P1;durP2;ratioP2;P2;SDS_P1;SDS_P2;PMS_P1;PMS_P2;Temp;Humidity;BMP_temperature;BMP_pressure;BME280_temperature;BME280_humidity;BME280_pressure;Samples;Min_cycle;Max_cycle;Signal;HPM_P1;HPM_P2
2021/04/10 00:00:53;;;;;;;3.58;1.35;;;;;;;2.66;78.18;92821.53;2106668;28;20082;-80
2021/04/10 00:01:53;;;;;;;1.58;1.33;;;;;;;2.61;78.02;92820.00;2098048;28;20105;-80
2021/04/10 00:02:54;;;;;;;3.22;1.27;;;;;;;2.50;78.79;92812.06;2088304;28;20021;-81
2021/04/10 00:03:54;;;;;;;2.40;1.35;;;;;;;2.69;78.61;92820.78;2086861;28;20096;-80
2021/04/10 00:04:54;;;;;;;4.57;1.33;;;;;;;2.57;78.84;92821.88;2095299;28;20485;-81
2021/04/10 00:05:55;;;;;;;4.53;1.23;;;;;;;2.52;78.57;92820.34;2106505;28;20032;-80
2021/04/10 00:06:55;;;;;;;2.13;1.35;;;;;;;2.47;78.78;92819.97;2095889;28;20071;-81
2021/04/10 00:07:56;;;;;;;1.30;1.10;;;;;;;2.39;79.66;92807.88;2089845;28;20629;-81
2021/04/10 00:08:56;;;;;;;2.00;1.20;;;;;;;2.44;79.17;92818.81;2098029;28;20030;-80
2021/04/10 00:09:57;;;;;;;3.20;1.38;;;;;;;2.42;79.58;92815.03;2098106;28;20021;-81
2021/04/10 00:10:57;;;;;;;1.65;1.52;;;;;;;2.32;79.26;92815.75;2109667;28;20034;-80
2021/04/10 00:11:58;;;;;;;3.03;1.80;;;;;;;2.29;79.71;92819.88;2098303;28;20083;-80
2021/04/10 00:12:59;;;;;;;2.33;1.60;;;;;;;2.31;79.32;92817.63;2098137;28;20027;-81
2021/04/10 00:13:59;;;;;;;2.45;1.35;;;;;;;2.29;79.61;92819.88;2091738;28;20036;-80
2021/04/10 00:15:00;;;;;;;1.63;1.08;;;;;;;2.26;79.40;92812.72;2089681;28;20017;-81
2021/04/10 00:16:00;;;;;;;1.95;1.10;;;;;;;2.24;79.87;92814.97;2105849;28;20114;-80
2021/04/10 00:17:01;;;;;;;1.63;1.10;;;;;;;2.19;79.20;92804.75;2106623;28;20563;-80
2021/04/10 00:18:01;;;;;;;1.50;1.15;;;;;;;2.29;79.51;92813.88;2105810;28;20107;-80
2021/04/10 00:19:02;;;;;;;2.63;1.30;;;;;;;2.56;76.52;92806.41;2114983;28;20023;-81
2021/04/10 00:20:10;;;;;;;4.00;1.30;;;;;;;2.69;76.53;92804.97;2123438;27;20079;-81
2021/04/10 00:21:11;;;;;;;1.60;1.20;;;;;;;2.68;75.87;92800.81;2114767;28;20679;-80
2021/04/10 00:22:11;;;;;;;4.47;1.42;;;;;;;2.81;76.68;92801.97;2106538;28;20081;-81
2021/04/10 00:23:12;;;;;;;2.38;1.10;;;;;;;2.74;77.40;92809.88;2106190;28;20055;-81
2021/04/10 00:24:13;;;;;;;1.23;1.13;;;;;;;2.65;77.16;92815.50;2100249;28;20373;-81
2021/04/10 00:25:15;;;;;;;3.47;1.30;;;;;;;2.52;77.72;92806.41;2097865;28;20021;-80
2021/04/10 00:26:15;;;;;;;3.38;1.40;;;;;;;2.51;77.99;92805.66;2098016;28;20020;-81
2021/04/10 00:27:15;;;;;;;1.90;1.40;;;;;;;2.51;77.85;92810.94;2103888;28;20024;-80
2021/04/10 00:28:16;;;;;;;2.30;1.40;;;;;;;2.65;76.51;92796.28;2114748;28;20600;-81
2021/04/10 00:29:16;;;;;;;2.33;1.23;;;;;;;2.71;76.49;92808.72;2123150;27;20023;-81
2021/04/10 00:30:17;;;;;;;1.40;1.00;;;;;;;2.91;75.42;92805.75;2106219;28;20101;-80
2021/04/10 00:31:17;;;;;;;1.45;1.30;;;;;;;2.85;75.90;92813.28;2102067;28;20028;-80
2021/04/10 00:32:18;;;;;;;2.22;1.13;;;;;;;2.86;75.27;92801.59;2103201;28;20141;-80
2021/04/10 00:33:18;;;;;;;1.75;1.20;;;;;;;3.10;74.49;92810.69;2106303;28;20028;-81
2021/04/10 00:34:19;;;;;;;3.50;1.40;;;;;;;2.98;75.05;92811.78;2106187;28;20028;-80
2021/04/10 00:35:19;;;;;;;3.00;1.20;;;;;;;2.87;75.57;92808.38;2097861;28;20020;-80
2021/04/10 00:36:19;;;;;;;2.22;1.50;;;;;;;2.79;75.53;92804.22;2097260;28;20139;-80
2021/04/10 00:37:20;;;;;;;2.88;1.30;;;;;;;2.71;75.83;92807.97;2091770;28;20021;-80
2021/04/10 00:38:20;;;;;;;2.42;1.45;;;;;;;2.66;75.85;92810.97;2104227;28;20096;-80
2021/04/10 00:39:21;;;;;;;1.90;1.60;;;;;;;2.61;76.37;92811.34;2123223;27;20019;-80
2021/04/10 00:40:22;;;;;;;2.00;1.30;;;;;;;2.58;76.54;92810.19;2106020;28;20031;-81
2021/04/10 00:41:22;;;;;;;1.58;1.20;;;;;;;2.64;75.28;92808.72;2089856;28;20033;-80
2021/04/10 00:42:23;;;;;;;2.38;1.20;;;;;;;2.71;75.55;92800.81;2096216;28;20054;-81
2021/04/10 00:43:24;;;;;;;2.03;1.27;;;;;;;2.79;75.66;92798.94;2112991;28;20031;-80
2021/04/10 00:44:24;;;;;;;1.95;1.08;;;;;;;2.85;74.66;92794.03;2105178;28;20024;-80
2021/04/10 00:45:25;;;;;;;1.63;1.00;;;;;;;3.12;73.38;92795.22;2106003;28;20170;-80
2021/04/10 00:46:25;;;;;;;2.15;1.10;;;;;;;3.28;73.86;92794.84;2106348;28;20020;-80
2021/04/10 00:47:25;;;;;;;1.70;1.02;;;;;;;3.32;73.27;92800.13;2097758;28;20027;-80
2021/04/10 00:48:26;;;;;;;5.53;1.23;;;;;;;3.27;73.20;92790.69;2097888;28;20024;-80
2021/04/10 00:49:27;;;;;;;3.13;1.10;;;;;;;3.33;72.94;92791.81;2097407;28;20095;-80
2021/04/10 00:50:28;;;;;;;1.33;1.20;;;;;;;3.43;72.56;92787.69;2088736;28;20027;-80
2021/04/10 00:51:28;;;;;;;1.40;0.90;;;;;;;3.40;72.94;92785.81;2089664;28;20409;-81
2021/04/10 00:52:30;;;;;;;2.10;1.13;;;;;;;3.38;72.44;92788.84;2096469;28;20024;-80
2021/04/10 00:53:32;;;;;;;2.97;1.33;;;;;;;3.69;70.77;92787.28;2097898;28;20589;-81
2021/04/10 00:54:34;;;;;;;1.70;0.88;;;;;;;4.01;69.55;92774.00;2089886;28;20025;-80
2021/04/10 00:55:35;;;;;;;2.20;1.20;;;;;;;4.11;69.29;92779.66;2088308;28;20029;-80
2021/04/10 00:56:36;;;;;;;3.35;1.08;;;;;;;4.20;69.05;92783.38;2098091;28;20052;-81
2021/04/10 00:57:36;;;;;;;2.13;0.95;;;;;;;4.14;68.96;92774.34;2110073;27;20073;-80
2021/04/10 00:58:37;;;;;;;1.95;1.10;;;;;;;4.19;68.97;92766.00;2103371;28;20119;-81
2021/04/10 00:59:38;;;;;;;0.80;0.80;;;;;;;4.20;69.23;92778.09;2097689;28;20559;-80
2021/04/10 01:00:39;;;;;;;2.55;1.10;;;;;;;4.28;68.07;92770.91;2105638;28;20032;-81
2021/04/10 01:01:40;;;;;;;1.45;0.95;;;;;;;4.39;67.64;92760.25;2106400;28;20063;-81
2021/04/10 01:02:40;;;;;;;2.35;0.75;;;;;;;4.80;64.96;92768.38;2114662;28;20031;-81
2021/04/10 01:03:41;;;;;;;3.53;1.10;;;;;;;5.08;63.75;92775.41;2105768;28;20051;-80
2021/04/10 01:04:41;;;;;;;1.35;0.90;;;;;;;5.17;63.27;92767.00;2089492;28;20074;-81
2021/04/10 01:05:42;;;;;;;1.52;1.05;;;;;;;5.33;62.80;92761.97;2106000;28;20082;-80
2021/04/10 01:06:42;;;;;;;3.08;1.00;;;;;;;5.22;63.63;92764.72;2101313;28;20024;-81
2021/04/10 01:07:43;;;;;;;2.95;0.98;;;;;;;5.58;61.81;92759.13;2081287;28;20386;-80
2021/04/10 01:08:43;;;;;;;3.08;1.10;;;;;;;5.48;61.77;92773.97;2094710;28;20020;-80
2021/04/10 01:09:47;;;;;;;3.08;1.20;;;;;;;5.45;61.27;92774.75;2113349;28;20380;-81
2021/04/10 01:10:47;;;;;;;0.82;0.80;;;;;;;5.44;61.34;92772.47;2111718;28;20059;-80
2021/04/10 01:12:09;;;;;;;2.38;0.90;;;;;;;5.54;61.12;92769.00;2106235;28;20616;-81
2021/04/10 01:13:21;;;;;;;5.25;1.00;;;;;;;5.78;60.17;92767.28;2100268;28;20376;-80
2021/04/10 01:14:43;;;;;;;4.18;1.38;;;;;;;5.64;61.60;92778.00;2100670;28;20035;-81
2021/04/10 01:16:16;;;;;;;1.27;0.70;;;;;;;6.00;59.31;92760.63;2101221;28;20032;-81
2021/04/10 01:17:24;;;;;;;1.50;1.00;;;;;;;5.75;60.79;92765.41;2096423;28;20024;-80
2021/04/10 01:18:37;;;;;;;1.23;0.90;;;;;;;5.70;60.23;92768.47;2096956;28;20134;-81
2021/04/10 01:19:50;;;;;;;2.28;1.10;;;;;;;5.55;60.80;92760.66;2097868;28;20370;-81
2021/04/10 01:21:07;;;;;;;1.63;1.05;;;;;;;5.58;60.34;92768.97;2098797;28;20155;-80
2021/04/10 01:22:25;;;;;;;1.85;1.00;;;;;;;5.77;59.24;92763.13;2104210;28;20507;-80
2021/04/10 01:23:53;;;;;;;1.75;1.10;;;;;;;5.81;59.26;92763.84;2101959;28;20040;-81
2021/04/10 01:25:09;;;;;;;1.25;0.77;;;;;;;6.26;56.04;92745.94;2097197;28;20028;-80
2021/04/10 01:26:32;;;;;;;1.58;0.90;;;;;;;6.29;56.99;92778.91;2096948;28;20047;-81
2021/04/10 01:27:38;;;;;;;1.08;0.80;;;;;;;6.56;54.61;92753.19;2109235;28;20472;-80
2021/04/10 01:29:07;;;;;;;1.30;0.70;;;;;;;6.53;54.84;92750.56;2105267;28;20032;-80
2021/04/10 01:30:19;;;;;;;1.30;0.80;;;;;;;6.39;55.13;92751.50;2101477;28;20099;-81
2021/04/10 01:31:26;;;;;;;0.90;0.82;;;;;;;6.30;56.59;92759.94;2092418;28;20037;-81
2021/04/10 01:32:35;;;;;;;3.67;0.70;;;;;;;6.56;53.41;92755.84;2090815;28;20413;-81
2021/04/10 01:33:40;;;;;;;2.17;0.90;;;;;;;6.55;54.83;92753.59;2099586;28;20107;-81
2021/04/10 01:34:45;;;;;;;3.15;0.80;;;;;;;6.56;54.55;92737.25;2082931;28;20036;-81
2021/04/10 01:35:53;;;;;;;2.05;0.75;;;;;;;6.61;53.76;92756.53;2098395;28;20562;-81
2021/04/10 01:36:58;;;;;;;2.47;0.90;;;;;;;6.74;52.83;92749.53;2097024;28;20641;-81
2021/04/10 01:38:01;;;;;;;1.73;0.90;;;;;;;6.97;51.78;92746.94;2091171;28;20122;-80
2021/04/10 01:39:06;;;;;;;1.38;0.50;;;;;;;7.02;51.51;92751.81;2097631;28;20105;-80
2021/04/10 01:40:08;;;;;;;2.25;0.70;;;;;;;7.06;51.67;92739.22;2098006;28;20527;-81
2021/04/10 01:41:10;;;;;;;2.40;0.82;;;;;;;7.01;51.63;92744.22;2101709;28;20032;-81
2021/04/10 01:42:14;;;;;;;1.08;0.82;;;;;;;6.89;53.24;92742.91;2097991;28;20016;-81
2021/04/10 01:43:15;;;;;;;1.05;0.70;;;;;;;6.98;51.32;92753.00;2092777;28;20021;-81
2021/04/10 01:44:18;;;;;;;1.40;0.73;;;;;;;6.95;52.10;92738.63;2089148;28;20056;-81
2021/04/10 01:45:20;;;;;;;1.08;0.80;;;;;;;6.84;52.19;92745.22;2089559;28;20111;-81
2021/04/10 01:46:24;;;;;;;2.15;0.88;;;;;;;6.85;51.88;92744.84;2095535;28;20024;-81
2021/04/10 01:47:24;;;;;;;0.82;0.63;;;;;;;6.86;51.82;92743.69;2098115;28;20438;-82
2021/04/10 01:48:27;;;;;;;3.22;0.90;;;;;;;6.92;52.46;92736.75;2097586;28;20029;-81
2021/04/10 01:49:29;;;;;;;0.73;0.57;;;;;;;7.12;51.10;92738.78;2089073;28;20101;-80
2021/04/10 01:50:31;;;;;;;1.27;0.80;;;;;;;7.05;51.77;92735.06;2089644;28;20025;-81
2021/04/10 01:51:33;;;;;;;1.02;0.60;;;;;;;6.93;51.90;92734.84;2097122;28;20027;-81
2021/04/10 01:52:33;;;;;;;5.13;0.95;;;;;;;6.93;52.84;92738.25;2097738;28;20738;-81
2021/04/10 01:53:35;;;;;;;3.08;0.90;;;;;;;6.82;52.92;92735.75;2097357;28;20016;-80
2021/04/10 01:54:37;;;;;;;1.58;0.85;;;;;;;6.81;52.76;92736.19;2087968;28;20039;-82
2021/04/10 01:55:38;;;;;;;2.05;0.80;;;;;;;6.92;51.91;92731.44;2090829;28;20405;-80
2021/04/10 01:56:43;;;;;;;2.20;0.90;;;;;;;6.85;53.44;92738.75;2097155;28;20048;-80
2021/04/10 01:57:44;;;;;;;1.35;0.80;;;;;;;7.15;51.18;92737.97;2098995;28;20772;-81
2021/04/10 01:58:46;;;;;;;1.15;0.73;;;;;;;7.18;50.90;92745.88;2105744;28;20053;-81
2021/04/10 01:59:47;;;;;;;1.55;0.80;;;;;;;7.05;51.27;92740.38;2097339;28;20093;-81
2021/04/10 02:00:49;;;;;;;1.88;0.80;;;;;;;6.93;52.52;92729.53;2105613;28;20126;-82
2021/04/10 02:01:50;;;;;;;1.95;0.90;;;;;;;6.86;53.20;92741.03;2107152;28;20097;-81
2021/04/10 02:04:30;;;;;;;1.73;0.80;;;;;;;6.92;53.15;92733.34;2135151;27;20635;-82
2021/04/10 02:05:32;;;;;;;1.65;0.82;;;;;;;6.96;52.06;92739.38;2121547;28;20034;-80
2021/04/10 02:06:34;;;;;;;0.85;0.80;;;;;;;6.89;52.28;92742.91;2114370;28;20020;-80
2021/04/10 02:07:34;;;;;;;3.97;0.85;;;;;;;6.82;53.10;92754.34;2121259;28;20027;-80
2021/04/10 02:08:36;;;;;;;1.90;0.90;;;;;;;6.82;52.76;92737.69;2104173;28;20515;-82
2021/04/10 02:09:40;;;;;;;1.98;0.75;;;;;;;6.82;52.83;92749.06;2104504;28;20491;-82
2021/04/10 02:10:41;;;;;;;1.23;0.82;;;;;;;6.80;54.29;92751.38;2097520;28;20024;-82
2021/04/10 02:11:43;;;;;;;1.52;0.90;;;;;;;6.82;53.50;92751.72;2105238;28;20469;-81
2021/04/10 02:12:48;;;;;;;1.45;0.80;;;;;;;6.78;52.99;92740.38;2113508;28;20030;-82
2021/04/10 02:13:49;;;;;;;1.50;1.00;;;;;;;6.87;53.13;92750.50;2106077;28;20554;-81
2021/04/10 02:14:50;;;;;;;1.42;0.70;;;;;;;6.88;53.01;92746.69;2111145;28;20059;-80
2021/04/10 02:15:51;;;;;;;1.65;0.90;;;;;;;7.04;52.05;92752.16;2111046;28;20027;-82
2021/04/10 02:16:52;;;;;;;1.73;0.75;;;;;;;6.94;53.21;92745.09;2106597;28;20119;-81
2021/04/10 02:17:57;;;;;;;0.82;0.65;;;;;;;6.97;52.87;92738.22;2113023;28;20050;-82
2021/04/10 02:19:01;;;;;;;1.58;0.60;;;;;;;6.97;52.66;92743.53;2112861;28;20027;-81
2021/04/10 02:20:06;;;;;;;3.10;1.20;;;;;;;6.87;53.23;92747.84;2108655;28;20114;-81
2021/04/10 02:21:09;;;;;;;4.78;0.90;;;;;;;6.81;53.82;92738.84;2101088;28;20713;-81
2021/04/10 02:22:11;;;;;;;3.42;0.73;;;;;;;6.82;53.83;92743.75;2109245;28;20392;-82
2021/04/10 02:23:15;;;;;;;2.97;1.10;;;;;;;6.70;54.04;92736.31;2104591;28;20028;-82
2021/04/10 02:24:16;;;;;;;2.30;0.80;;;;;;;6.72;53.64;92746.53;2104777;28;20548;-80
2021/04/10 02:25:19;;;;;;;1.13;0.80;;;;;;;6.68;54.43;92745.84;2104532;28;20017;-79
2021/04/10 02:26:20;;;;;;;1.63;0.80;;;;;;;6.68;55.32;92764.44;2111874;28;20020;-79
2021/04/10 02:27:20;;;;;;;1.83;0.80;;;;;;;6.60;55.49;92752.38;2112731;28;20027;-80
2021/04/10 02:28:22;;;;;;;1.73;1.02;;;;;;;6.59;54.38;92753.53;2118847;28;20027;-82
2021/04/10 02:29:23;;;;;;;1.35;0.80;;;;;;;6.48;55.13;92761.63;2106292;28;20029;-81
2021/04/10 02:30:23;;;;;;;1.73;0.98;;;;;;;6.51;55.64;92763.50;2111052;28;20023;-79
2021/04/10 02:31:36;;;;;;;2.10;0.70;;;;;;;6.63;53.54;92760.31;2108289;28;20031;-80
2021/04/10 02:32:49;;;;;;;1.80;0.90;;;;;;;6.54;54.73;92760.03;2112162;27;20031;-80
2021/04/10 02:33:50;;;;;;;1.75;0.93;;;;;;;6.68;53.91;92772.41;2107655;28;20028;-82
2021/04/10 02:35:16;;;;;;;3.60;1.10;;;;;;;6.57;54.88;92756.59;2103987;28;20033;-79
2021/04/10 02:36:22;;;;;;;2.00;0.80;;;;;;;6.77;53.67;92770.75;2110886;28;20024;-79
2021/04/10 02:37:24;;;;;;;2.72;0.80;;;;;;;6.65;54.82;92773.94;2113493;28;20051;-81
2021/04/10 02:38:26;;;;;;;2.40;0.85;;;;;;;6.84;52.93;92763.81;2111069;28;20506;-81
2021/04/10 02:39:28;;;;;;;2.17;0.80;;;;;;;6.74;53.65;92763.56;2104504;28;20024;-81
2021/04/10 02:40:32;;;;;;;1.85;1.20;;;;;;;6.61;54.57;92761.84;2104333;28;20024;-82
2021/04/10 02:41:35;;;;;;;1.90;1.02;;;;;;;6.51;55.33;92766.91;2105005;28;20059;-79
2021/04/10 02:42:41;;;;;;;0.65;0.65;;;;;;;6.48;54.48;92773.00;2113614;27;20480;-80
2021/04/10 02:43:48;;;;;;;1.17;0.80;;;;;;;6.81;52.96;92758.19;2105498;28;20454;-82
2021/04/10 02:44:53;;;;;;;1.55;0.90;;;;;;;6.91;53.21;92769.81;2111839;28;20433;-81
2021/04/10 02:46:00;;;;;;;2.42;0.82;;;;;;;6.81;53.48;92768.06;2107381;28;20035;-81
2021/04/10 02:47:06;;;;;;;2.08;1.10;;;;;;;6.69;53.77;92769.34;2113188;28;20057;-81
2021/04/10 02:48:10;;;;;;;2.05;0.77;;;;;;;6.68;55.14;92761.78;2106069;28;20016;-81
2021/04/10 02:49:14;;;;;;;3.03;0.77;;;;;;;6.68;53.77;92767.09;2113322;27;20019;-82
2021/04/10 02:50:17;;;;;;;1.63;1.13;;;;;;;6.60;54.84;92763.75;2117732;28;20031;-81
2021/04/10 02:51:20;;;;;;;4.40;0.80;;;;;;;6.56;54.12;92761.16;2099136;28;20024;-81
2021/04/10 02:52:28;;;;;;;1.92;0.98;;;;;;;6.53;54.18;92769.91;2104079;28;20024;-79
2021/04/10 02:53:33;;;;;;;4.10;0.80;;;;;;;6.77;53.25;92752.16;2112715;28;20047;-80
2021/04/10 02:54:40;;;;;;;1.95;0.90;;;;;;;6.90;52.04;92751.63;2105292;28;20020;-80
2021/04/10 02:55:45;;;;;;;1.60;0.80;;;;;;;6.79;53.60;92763.13;2099439;28;20024;-80
2021/04/10 02:56:53;;;;;;;1.23;0.80;;;;;;;6.73;53.12;92754.09;2101153;28;20181;-81
2021/04/10 02:57:58;;;;;;;0.90;0.80;;;;;;;6.65;53.81;92763.31;2106541;28;20485;-81
2021/04/10 02:59:00;;;;;;;1.10;0.82;;;;;;;6.65;54.13;92757.25;2112777;28;20023;-80
2021/04/10 03:00:04;;;;;;;4.10;0.80;;;;;;;6.67;54.05;92754.94;2100361;28;20027;-79
2021/04/10 03:01:06;;;;;;;2.35;0.90;;;;;;;6.53;54.52;92750.56;2092941;28;20056;-79
2021/04/10 03:02:09;;;;;;;2.97;0.95;;;;;;;6.58;54.17;92758.09;2100039;28;20693;-80
2021/04/10 03:03:12;;;;;;;1.40;0.77;;;;;;;6.59;54.81;92759.59;2112636;28;20161;-79
2021/04/10 03:04:13;;;;;;;1.80;0.90;;;;;;;6.61;53.67;92756.53;2104669;28;20485;-82
2021/04/10 03:05:14;;;;;;;1.63;0.90;;;;;;;6.49;53.57;92758.56;2121036;28;20110;-81
2021/04/10 03:06:16;;;;;;;2.03;1.33;;;;;;;6.49;54.25;92758.56;2112511;28;20019;-81
2021/04/10 03:07:16;;;;;;;1.13;0.98;;;;;;;6.49;55.21;92749.84;2103993;28;20102;-82
2021/04/10 03:08:20;;;;;;;3.35;0.70;;;;;;;6.67;52.64;92745.09;2112235;28;20106;-81
2021/04/10 03:09:21;;;;;;;2.30;1.00;;;;;;;6.77;51.96;92754.06;2112569;28;20019;-81
2021/04/10 03:10:22;;;;;;;1.52;0.70;;;;;;;6.66;53.15;92759.50;2101650;28;20023;-82
2021/04/10 03:11:23;;;;;;;3.20;1.00;;;;;;;6.61;54.10;92754.63;2104413;28;20469;-82
2021/04/10 03:12:25;;;;;;;2.40;0.90;;;;;;;6.62;54.52;92742.84;2105816;28;20028;-79
2021/04/10 03:13:26;;;;;;;1.17;0.80;;;;;;;6.61;53.84;92757.28;2102590;28;20021;-82
2021/04/10 03:14:27;;;;;;;1.60;0.68;;;;;;;6.59;53.90;92769.47;2097118;28;20473;-79
2021/04/10 03:15:27;;;;;;;3.92;0.88;;;;;;;6.71;52.95;92750.34;2107600;28;20024;-81
2021/04/10 03:16:29;;;;;;;2.72;0.60;;;;;;;6.61;53.69;92751.97;2102273;28;20037;-82
2021/04/10 03:17:30;;;;;;;3.65;0.80;;;;;;;6.67;52.94;92758.38;2102665;28;20028;-79
2021/04/10 03:18:32;;;;;;;1.48;0.70;;;;;;;6.74;51.91;92749.53;2114976;28;20103;-81
2021/04/10 03:19:35;;;;;;;1.02;0.65;;;;;;;6.65;52.94;92741.31;2102641;28;20024;-81
2021/04/10 03:20:35;;;;;;;1.25;0.60;;;;;;;6.63;52.87;92764.84;2098846;28;20111;-80
2021/04/10 03:21:38;;;;;;;2.05;1.20;;;;;;;6.62;52.74;92742.84;2098522;28;20032;-80
2021/04/10 03:22:48;;;;;;;1.67;0.80;;;;;;;6.74;52.60;92758.25;2090608;28;20112;-82
2021/04/10 03:23:49;;;;;;;1.73;0.80;;;;;;;6.62;52.31;92752.72;2087013;28;20029;-81
2021/04/10 03:24:49;;;;;;;2.35;0.82;;;;;;;6.73;52.22;92743.47;2083597;28;20481;-81
2021/04/10 03:25:50;;;;;;;1.75;1.13;;;;;;;6.75;52.33;92751.78;2096770;28;20029;-82
2021/04/10 03:26:50;;;;;;;2.63;1.00;;;;;;;6.75;51.78;92748.38;2091695;28;20067;-81
2021/04/10 03:27:51;;;;;;;1.10;0.70;;;;;;;6.70;52.60;92746.94;2098631;28;20052;-81
2021/04/10 03:28:54;;;;;;;2.80;0.82;;;;;;;6.72;52.17;92746.53;2098203;28;20020;-81
2021/04/10 03:29:54;;;;;;;2.83;0.90;;;;;;;6.71;53.36;92774.25;2102577;28;20103;-82
2021/04/10 03:31:01;;;;;;;1.77;0.70;;;;;;;6.82;51.11;92762.34;2092511;28;20409;-81
2021/04/10 03:32:03;;;;;;;2.53;0.88;;;;;;;6.79;52.34;92749.84;2091521;28;20523;-79
2021/04/10 03:33:04;;;;;;;1.73;1.10;;;;;;;6.81;52.73;92744.91;2090262;28;20025;-82
2021/04/10 03:34:05;;;;;;;2.28;0.95;;;;;;;6.68;52.07;92751.91;2089759;28;20021;-81
2021/04/10 03:35:07;;;;;;;3.60;0.88;;;;;;;6.77;51.34;92752.16;2106654;28;20044;-81
2021/04/10 03:36:08;;;;;;;1.40;0.80;;;;;;;6.81;51.38;92752.88;2102559;28;20154;-82
2021/04/10 03:37:08;;;;;;;1.52;0.80;;;;;;;6.73;52.66;92751.44;2106487;28;20023;-82
2021/04/10 03:38:09;;;;;;;1.08;0.70;;;;;;;6.71;52.75;92760.97;2106906;28;20028;-81
2021/04/10 03:39:09;;;;;;;1.52;0.77;;;;;;;6.58;53.59;92755.44;2089911;28;20649;-81
2021/04/10 03:40:10;;;;;;;1.75;0.70;;;;;;;6.63;52.30;92759.53;2086082;28;20447;-82
2021/04/10 03:41:11;;;;;;;1.20;0.80;;;;;;;6.64;52.50;92755.75;2090104;28;20027;-81
2021/04/10 03:42:11;;;;;;;1.95;0.88;;;;;;;6.61;52.70;92773.22;2089815;28;20098;-80
2021/04/10 03:43:12;;;;;;;2.70;1.20;;;;;;;6.79;51.73;92767.69;2092353;28;20055;-79
2021/04/10 03:44:12;;;;;;;1.95;0.80;;;;;;;6.77;52.74;92773.41;2106711;28;20028;-80
2021/04/10 03:45:15;;;;;;;1.08;0.88;;;;;;;6.74;52.00;92776.84;2106704;28;20020;-81
2021/04/10 03:46:16;;;;;;;1.63;0.80;;;;;;;6.82;51.92;92766.91;2090525;28;20031;-82
2021/04/10 03:47:16;;;;;;;0.80;0.70;;;;;;;6.73;52.17;92759.41;2098078;28;20389;-81
2021/04/10 03:48:18;;;;;;;2.30;0.90;;;;;;;6.68;52.81;92773.16;2090182;28;20519;-82
2021/04/10 03:49:18;;;;;;;1.95;0.80;;;;;;;6.62;53.19;92761.44;2090049;28;20517;-81
2021/04/10 03:50:19;;;;;;;1.27;0.70;;;;;;;6.66;52.59;92769.38;2098278;28;20082;-82
2021/04/10 03:51:19;;;;;;;1.98;0.77;;;;;;;6.64;52.94;92761.06;2090166;28;20159;-82
2021/04/10 03:52:20;;;;;;;2.08;0.82;;;;;;;6.74;52.73;92765.47;2096767;28;20081;-82
2021/04/10 03:53:20;;;;;;;1.10;0.80;;;;;;;6.74;52.18;92755.59;2098339;28;20029;-81
2021/04/10 03:54:20;;;;;;;1.35;0.70;;;;;;;6.77;52.39;92757.47;2106790;28;20016;-81
2021/04/10 03:55:21;;;;;;;2.15;0.70;;;;;;;6.70;53.05;92768.19;2112207;28;20023;-81
2021/04/10 03:56:21;;;;;;;1.42;0.80;;;;;;;6.74;52.10;92760.16;2100688;28;20115;-81
2021/04/10 03:57:22;;;;;;;2.47;0.80;;;;;;;6.68;52.57;92761.78;2097905;28;20020;-81
2021/04/10 03:58:22;;;;;;;3.60;0.98;;;;;;;6.78;52.15;92758.22;2083648;28;20048;-82
2021/04/10 03:59:23;;;;;;;3.78;0.90;;;;;;;6.75;52.23;92761.66;2095951;28;20021;-81
2021/04/10 04:00:23;;;;;;;2.70;0.90;;;;;;;6.78;52.17;92769.59;2098080;28;20035;-81
2021/04/10 04:01:24;;;;;;;2.47;1.13;;;;;;;6.70;53.31;92765.53;2089909;28;20021;-82
2021/04/10 04:02:24;;;;;;;1.83;0.70;;;;;;;6.65;52.36;92765.22;2097883;28;20112;-81
2021/04/10 04:03:25;;;;;;;1.50;0.90;;;;;;;6.63;53.26;92767.50;2091644;28;20025;-82
2021/04/10 04:04:25;;;;;;;0.88;0.73;;;;;;;6.60;53.38;92771.72;2096042;28;20037;-82
2021/04/10 04:05:27;;;;;;;4.15;0.80;;;;;;;6.60;53.74;92768.31;2104517;28;20051;-81
2021/04/10 04:06:27;;;;;;;1.30;0.70;;;;;;;6.66;52.77;92775.44;2100057;28;20043;-79
2021/04/10 04:07:28;;;;;;;3.33;0.80;;;;;;;6.60;53.61;92770.97;2097730;28;21464;-79
2021/04/10 04:08:28;;;;;;;2.03;0.80;;;;;;;6.61;52.89;92762.59;2082824;28;20025;-79
2021/04/10 04:09:29;;;;;;;1.92;0.80;;;;;;;6.62;53.12;92768.66;2096550;28;20036;-80
2021/04/10 04:10:29;;;;;;;1.52;0.80;;;;;;;6.58;53.37;92768.69;2092628;28;20025;-80
2021/04/10 04:11:30;;;;;;;1.33;0.70;;;;;;;6.53;53.01;92764.59;2090011;28;20033;-81
2021/04/10 04:12:30;;;;;;;1.23;0.90;;;;;;;6.58;53.39;92763.38;2097693;28;20028;-78
2021/04/10 04:13:30;;;;;;;2.75;0.77;;;;;;;6.54;54.02;92760.81;2102315;28;20066;-81
2021/04/10 04:14:31;;;;;;;0.90;0.80;;;;;;;6.67;52.62;92761.03;2105293;28;20080;-80
2021/04/10 04:15:32;;;;;;;1.08;0.70;;;;;;;6.69;53.17;92763.28;2090470;28;20028;-79
2021/04/10 04:16:32;;;;;;;2.30;0.80;;;;;;;6.63;53.73;92762.19;2081717;28;20018;-82
2021/04/10 04:17:33;;;;;;;0.90;0.70;;;;;;;6.56;55.10;92761.16;2088651;28;20028;-81
2021/04/10 04:18:33;;;;;;;2.85;1.08;;;;;;;6.52;53.32;92762.34;2097548;28;20497;-80
2021/04/10 04:19:34;;;;;;;1.77;0.63;;;;;;;6.48;53.84;92754.41;2089031;28;20048;-80
2021/04/10 04:20:34;;;;;;;1.80;0.70;;;;;;;6.63;53.82;92759.53;2081310;28;20029;-80
2021/04/10 04:21:34;;;;;;;2.05;0.70;;;;;;;6.62;53.25;92766.75;2105773;28;20028;-79
2021/04/10 04:22:35;;;;;;;2.38;1.20;;;;;;;6.65;53.70;92759.91;2097687;28;20539;-80
2021/04/10 04:23:35;;;;;;;1.10;0.80;;;;;;;6.61;53.24;92756.53;2081942;28;20032;-79
2021/04/10 04:24:36;;;;;;;1.80;0.77;;;;;;;6.74;52.89;92750.28;2088671;28;20025;-80
2021/04/10 04:25:36;;;;;;;2.00;1.00;;;;;;;6.72;53.73;92765.13;2091096;28;20059;-80
2021/04/10 04:26:37;;;;;;;2.05;0.80;;;;;;;6.75;53.02;92756.34;2101365;28;20020;-80
2021/04/10 04:27:38;;;;;;;2.45;0.80;;;;;;;6.69;53.68;92761.38;2121992;27;20031;-80
2021/04/10 04:28:38;;;;;;;1.88;0.90;;;;;;;6.60;53.96;92750.47;2106403;28;20031;-82
2021/04/10 04:29:39;;;;;;;1.27;0.90;;;;;;;6.51;54.31;92761.59;2093569;28;20025;-82
2021/04/10 04:30:39;;;;;;;1.95;1.10;;;;;;;6.57;54.93;92752.03;2089642;28;20024;-79
2021/04/10 04:31:40;;;;;;;1.88;1.02;;;;;;;6.50;54.25;92757.44;2089674;28;20107;-82
2021/04/10 04:32:40;;;;;;;0.80;0.70;;;;;;;6.52;54.77;92755.13;2106245;28;20024;-82
2021/04/10 04:33:41;;;;;;;2.55;0.95;;;;;;;6.42;54.73;92776.50;2106203;28;20028;-82
2021/04/10 04:34:41;;;;;;;2.47;1.00;;;;;;;6.39;54.99;92766.66;2089552;28;20067;-81
2021/04/10 04:35:41;;;;;;;1.83;0.75;;;;;;;6.37;54.08;92767.06;2097489;28;20025;-82
2021/04/10 04:36:42;;;;;;;1.15;0.77;;;;;;;6.43;54.77;92767.38;2099039;28;20107;-82
2021/04/10 04:37:42;;;;;;;2.05;0.70;;;;;;;6.41;55.07;92764.34;2097482;28;20381;-82
2021/04/10 04:38:43;;;;;;;1.25;0.70;;;;;;;6.52;54.72;92768.41;2089824;28;20484;-81
2021/04/10 04:39:43;;;;;;;2.15;0.80;;;;;;;6.45;54.80;92765.84;2106164;28;20483;-81
2021/04/10 04:40:44;;;;;;;0.85;0.60;;;;;;;6.50;54.96;92770.72;2106099;28;20501;-82
2021/04/10 04:41:44;;;;;;;1.20;0.73;;;;;;;6.61;54.40;92764.50;2098009;28;20417;-82
2021/04/10 04:42:45;;;;;;;2.90;0.82;;;;;;;6.46;54.24;92756.72;2097299;28;20082;-82
2021/04/10 04:43:45;;;;;;;2.60;0.70;;;;;;;6.45;55.02;92759.75;2098285;28;20146;-82
2021/04/10 04:44:45;;;;;;;1.27;0.80;;;;;;;6.54;54.13;92770.66;2097628;28;20028;-82
2021/04/10 04:45:46;;;;;;;1.45;0.65;;;;;;;6.52;55.04;92765.00;2089327;28;20029;-82
2021/04/10 04:46:46;;;;;;;1.00;0.70;;;;;;;6.45;55.29;92773.81;2085149;28;20095;-82
2021/04/10 04:47:47;;;;;;;1.38;0.68;;;;;;;6.49;55.17;92774.50;2105795;28;20393;-82
2021/04/10 04:48:47;;;;;;;1.58;1.00;;;;;;;6.51;55.08;92769.56;2106017;28;20032;-81
2021/04/10 04:49:47;;;;;;;1.33;0.70;;;;;;;6.59;54.74;92775.53;2097898;28;20029;-82
2021/04/10 04:50:48;;;;;;;2.38;1.02;;;;;;;6.52;54.83;92780.94;2105932;28;20024;-81
2021/04/10 04:51:51;;;;;;;1.60;0.80;;;;;;;6.55;55.13;92786.19;2105657;28;20020;-81
2021/04/10 04:52:51;;;;;;;1.73;0.80;;;;;;;6.62;54.96;92781.94;2102329;28;20024;-82
2021/04/10 04:53:52;;;;;;;3.13;1.00;;;;;;;6.49;55.41;92779.06;2106133;28;20020;-82
2021/04/10 04:54:52;;;;;;;4.25;1.23;;;;;;;6.42;55.52;92779.91;2106025;28;20089;-81
2021/04/10 04:55:53;;;;;;;1.08;0.90;;;;;;;6.40;55.98;92782.19;2114190;28;20051;-81
2021/04/10 04:56:53;;;;;;;2.67;0.70;;;;;;;6.53;55.25;92780.53;2109711;28;20495;-82
2021/04/10 04:57:53;;;;;;;1.83;0.80;;;;;;;6.48;55.16;92782.88;2094119;28;20596;-81
2021/04/10 04:58:54;;;;;;;1.33;0.90;;;;;;;6.47;56.02;92782.13;2097454;28;20020;-82
2021/04/10 04:59:54;;;;;;;1.10;0.70;;;;;;;6.52;55.73;92789.63;2089594;28;20032;-81